Latest Weather Observations for Tasman Island

IDT60901

Issued at 3:21 pm EST Wednesday 19 June 2019 (issued every 10 minutes, with the page automatically refreshed every 10 minutes)

About weather observations | Map of Hobart area stations | Latest observations for Hobart area | Other Formats
Station Details ID: 094155 Name: TASMAN ISLAND Lat: -43.24 Lon: 148.00 Height: 240.0 m
Data from the previous 72 hours. | See also: Recent months at Tasman Island
Date/Time
EST
Temp
°C
App
Temp
°C
Dew
Point
°C
Rel
Hum
%
Delta-T
°C
Wind Press
QNH
hPa
Press
MSL
hPa
Rain since
9am
mm
Dir  Spd
km/h
Gust
km/h
Spd
kts
Gust
kts
19/03:00pm 7.6 -0.4 1.5 65 2.5 SSW 33 48 18 26 1020.0 1020.3 1.0
19/02:30pm 7.6 -0.7 1.9 67 2.4 SSW 35 48 19 26 1019.6 1019.9 1.0
19/02:00pm 7.5 -0.5 1.8 67 2.4 SSW 33 48 18 26 1019.4 1019.7 1.0
19/01:30pm 8.1 0.2 2.4 67 2.4 SSW 33 46 18 25 1019.4 1019.7 1.0
19/01:00pm 8.1 0.3 1.9 65 2.6 SSW 32 48 17 26 1019.3 1019.6 1.0
19/12:30pm 7.7 -0.1 1.8 66 2.5 SSW 32 46 17 25 1019.1 1019.4 1.0
19/12:00pm 6.7 -1.1 2.6 75 1.7 SW 33 48 18 26 1019.3 1019.6 1.0
19/11:30am 6.5 -2.0 3.3 80 1.4 SSW 37 48 20 26 1019.3 1019.6 1.0
19/11:16am 6.7 -0.3 4.0 83 1.2 SSW 30 48 16 26 1019.2 1019.5 0.4
19/11:00am 6.6 -0.9 4.4 86 1.0 SSW 33 48 18 26 1019.3 1019.6 0.2
19/10:30am 6.5 -1.9 3.7 82 1.2 SSW 37 48 20 26 1019.3 1019.6 0.0
19/10:00am 6.7 -0.9 3.7 81 1.3 SSW 33 48 18 26 1018.9 1019.2 0.0
19/09:30am 6.2 -2.0 2.8 79 1.4 SSW 35 48 19 26 1018.5 1018.8 0.0
19/09:00am 6.7 -1.6 2.2 73 1.9 SSW 35 48 19 26 1018.2 1018.5 4.8
19/08:30am 5.3 -2.2 3.5 88 0.8 SSW 32 48 17 26 1017.6 1017.9 4.6
19/08:00am 6.7 -1.1 2.8 76 1.6 SSW 33 46 18 25 1017.2 1017.5 3.8
19/07:30am 7.2 -0.6 2.7 73 1.9 SSW 33 48 18 26 1016.8 1017.1 3.8
19/07:00am 6.4 -1.6 1.5 71 2.0 SW 33 50 18 27 1016.5 1016.8 3.8
19/06:54am 6.7 -1.0 2.2 73 1.9 SSW 32 50 17 27 1016.3 1016.6 3.8
19/06:30am 6.8 -0.8 2.7 75 1.7 SW 32 48 17 26 1016.0 1016.3 3.8
19/06:00am 7.0 -0.6 2.7 74 1.8 SSW 32 46 17 25 1015.4 1015.7 3.8
19/05:30am 7.4 -0.4 1.9 68 2.3 SSW 32 46 17 25 1015.1 1015.3 3.8
19/05:11am 7.3 -0.2 1.0 64 2.6 SW 30 48 16 26 1014.8 1015.0 3.8
19/05:00am 7.4 -0.5 2.3 70 2.1 SSW 33 48 18 26 1014.6 1014.8 3.8
19/04:30am 7.3 -0.7 1.8 68 2.3 SSW 33 48 18 26 1014.2 1014.5 3.8
19/04:00am 6.8 -0.9 3.4 79 1.5 SSW 33 48 18 26 1014.1 1014.4 3.6
19/03:36am 6.6 -0.9 4.4 86 1.0 SSW 33 52 18 28 1014.2 1014.5 3.6
19/03:30am 7.2 -0.3 4.5 83 1.2 SSW 33 48 18 26 1014.1 1014.4 3.4
19/03:11am 7.3 0.8 4.6 83 1.2 SSW 28 48 15 26 1014.0 1014.3 3.4
19/03:00am 7.1 -0.2 5.3 88 0.8 SSW 33 48 18 26 1014.0 1014.3 3.4
19/02:30am 7.0 -0.8 5.0 87 0.9 SSW 35 52 19 28 1013.8 1014.1 3.4
19/02:00am 6.8 -0.5 5.3 90 0.7 SSW 33 48 18 26 1013.4 1013.7 3.2
19/01:32am 6.7 0.3 5.3 91 0.6 SW 28 52 15 28 1012.9 1013.2 2.8
19/01:30am 7.0 1.1 5.6 91 0.6 SW 26 52 14 28 1012.9 1013.2 2.8
19/01:00am 6.5 0.1 5.1 91 0.6 SW 28 52 15 28 1012.5 1012.8 2.6
19/12:48am 7.2 0.8 5.2 87 0.9 SSW 28 48 15 26 1012.3 1012.6 2.6
19/12:30am 7.2 0.0 5.7 90 0.7 SSW 33 50 18 27 1012.2 1012.5 2.6
19/12:24am 7.0 0.3 5.6 91 0.6 SSW 30 50 16 27 1012.0 1012.3 2.6
19/12:00am 7.0 -0.5 6.4 96 0.3 SSW 35 48 19 26 1011.8 1012.1 2.6
 
Date/Time
EST
Temp
°C
App
Temp
°C
Dew
Point
°C
Rel
Hum
%
Delta-T
°C
Wind Press
QNH
hPa
Press
MSL
hPa
Rain since
9am
mm
Dir  Spd
km/h
Gust
km/h
Spd
kts
Gust
kts
18/11:30pm 7.0 0.5 6.6 97 0.2 SSW 30 50 16 27 1011.4 1011.6 2.4
18/11:05pm 7.2 0.4 6.8 97 0.2 SSW 32 50 17 27 1011.0 1011.2 2.4
18/11:00pm 7.5 1.1 7.1 97 0.2 SSW 30 48 16 26 1011.1 1011.3 2.4
18/10:42pm 7.5 1.5 7.1 97 0.2 SSW 28 48 15 26 1010.6 1010.8 1.8
18/10:30pm 7.5 1.1 6.9 96 0.3 SSW 30 48 16 26 1010.3 1010.5 1.4
18/10:21pm 7.9 1.9 7.1 95 0.4 SSW 28 48 15 26 1010.1 1010.3 1.0
18/10:00pm 8.1 2.9 7.3 95 0.4 SSW 24 52 13 28 1009.5 1009.8 0.4
18/09:33pm 8.0 2.1 7.6 97 0.2 SSW 28 48 15 26 1009.2 1009.5 0.4
18/09:30pm 8.3 1.7 7.9 97 0.2 SSW 32 48 17 26 1009.3 1009.6 0.4
18/09:00pm 8.7 2.0 8.1 96 0.3 SSW 33 48 18 26 1008.9 1009.2 0.4
18/08:51pm 9.1 3.4 8.3 95 0.4 SSW 28 46 15 25 1008.9 1009.2 0.2
18/08:49pm 9.2 3.9 8.4 95 0.4 SSW 26 46 14 25 1008.9 1009.2 0.2
18/08:30pm 8.8 6.6 7.9 94 0.4 W 9 24 5 13 1008.6 1008.9 0.2
18/08:00pm 8.1 2.8 7.0 93 0.5 WNW 24 39 13 21 1008.8 1009.1 0.2
18/07:30pm 8.3 5.1 6.9 91 0.7 WNW 13 39 7 21 1008.7 1009.0 0.2
18/07:00pm 8.9 4.3 6.7 86 1.0 NW 20 41 11 22 1008.4 1008.7 0.2
18/06:30pm 9.2 6.4 6.8 85 1.1 NW 11 35 6 19 1007.9 1008.1 0.2
18/06:00pm 9.8 6.6 5.2 73 2.1 W 11 28 6 15 1008.0 1008.2 0.2
18/05:30pm 10.6 6.6 4.7 67 2.7 NW 15 30 8 16 1007.9 1008.1 0.2
18/05:00pm 10.7 5.8 4.0 63 3.0 WNW 19 28 10 15 1007.5 1007.7 0.2
18/04:30pm 10.7 5.2 4.0 63 3.0 NW 22 30 12 16 1007.0 1007.2 0.2
18/04:00pm 11.5 6.3 3.8 59 3.5 NW 20 32 11 17 1007.1 1007.3 0.2
18/03:30pm 11.8 5.1 3.8 58 3.6 NW 28 44 15 24 1007.2 1007.4 0.2
18/03:00pm 12.4 7.7 5.3 62 3.3 NW 19 35 10 19 1007.2 1007.4 0.2
18/02:30pm 12.4 7.3 6.2 66 3.0 NNW 22 35 12 19 1007.1 1007.3 0.2
18/02:00pm 11.9 6.3 7.0 72 2.4 NNW 26 39 14 21 1007.0 1007.2 0.2
18/01:30pm 11.0 7.5 7.3 78 1.8 N 15 39 8 21 1007.4 1007.6 0.0
18/01:15pm 11.7 5.7 7.2 74 2.2 N 28 46 15 25 1007.4 1007.6 0.0
18/01:00pm 12.2 7.0 7.3 72 2.4 N 24 44 13 24 1007.6 1007.8 0.0
18/12:30pm 11.7 7.1 6.4 70 2.5 N 20 41 11 22 1007.8 1008.0 0.0
18/12:00pm 12.2 5.8 6.9 70 2.6 N 30 46 16 25 1008.2 1008.4 0.0
18/11:58am 12.1 6.0 6.8 70 2.6 N 28 46 15 25 1008.3 1008.6 0.0
18/11:30am 11.4 5.6 6.3 71 2.4 N 26 44 14 24 1008.7 1009.0 0.0
18/11:06am 11.5 5.4 6.4 71 2.4 N 28 48 15 26 1009.0 1009.3 0.0
18/11:00am 11.4 4.3 6.5 72 2.3 N 33 48 18 26 1009.0 1009.3 0.0
18/10:30am 11.6 5.0 5.9 68 2.7 N 30 48 16 26 1009.5 1009.8 0.0
18/10:08am 11.5 5.2 5.8 68 2.7 NNW 28 48 15 26 1009.2 1009.5 0.0
18/10:00am 11.4 6.2 5.7 68 2.7 N 22 46 12 25 1009.4 1009.7 0.0
18/09:37am 11.2 5.1 6.5 73 2.2 N 28 46 15 25 1009.5 1009.8 0.0
18/09:30am 11.2 4.1 6.5 73 2.2 N 33 48 18 26 1009.6 1009.9 0.0
18/09:00am 11.0 4.0 6.2 72 2.3 N 32 48 17 26 1009.7 1010.0 0.0
18/08:30am 11.2 3.2 5.9 70 2.5 N 37 46 20 25 1010.1 1010.3 0.0
18/08:00am 11.2 3.7 6.1 71 2.4 N 35 46 19 25 1010.4 1010.6 0.0
18/07:30am 11.1 3.2 6.0 71 2.4 N 37 48 20 26 1010.7 1010.9 0.0
18/07:00am 10.9 4.4 6.6 75 2.1 N 30 48 16 26 1011.0 1011.2 0.0
18/06:30am 10.9 3.0 6.3 73 2.2 N 37 48 20 26 1011.1 1011.3 0.0
18/06:00am 10.7 2.9 6.5 75 2.0 N 37 48 20 26 1011.1 1011.3 0.0
18/05:30am 10.5 7.2 6.6 77 1.9 NNE 13 32 7 17 1011.5 1011.7 0.0
18/05:00am 10.7 7.4 6.5 75 2.0 NNE 13 33 7 18 1011.4 1011.6 0.0
18/04:30am 10.5 4.0 6.3 75 2.0 NNE 30 43 16 23 1011.8 1012.1 0.0
18/04:05am 10.6 4.5 6.4 75 2.0 N 28 46 15 25 1012.1 1012.4 0.0
18/04:00am 10.6 4.0 6.2 74 2.1 N 30 43 16 23 1012.1 1012.4 0.0
18/03:30am 10.5 4.9 5.5 71 2.3 N 24 37 13 20 1012.3 1012.6 0.0
18/03:00am 10.5 4.5 5.3 70 2.4 N 26 43 14 23 1012.8 1013.1 0.0
18/02:36am 10.6 4.2 5.4 70 2.4 N 28 46 15 25 1012.9 1013.2 0.0
18/02:30am 10.5 4.5 5.3 70 2.4 N 26 44 14 24 1012.9 1013.2 0.0
18/02:00am 10.7 5.5 5.3 69 2.5 N 22 37 12 20 1013.3 1013.6 0.0
18/01:30am 10.5 4.1 5.3 70 2.4 N 28 41 15 22 1013.4 1013.7 0.0
18/01:00am 10.9 5.9 4.4 64 3.0 N 20 33 11 18 1013.7 1014.0 0.0
18/12:30am 10.6 6.2 4.7 67 2.7 N 17 28 9 15 1014.1 1014.4 0.0
18/12:00am 10.7 6.2 4.2 64 2.9 N 17 32 9 17 1014.5 1014.7 0.0
 
Date/Time
EST
Temp
°C
App
Temp
°C
Dew
Point
°C
Rel
Hum
%
Delta-T
°C
Wind Press
QNH
hPa
Press
MSL
hPa
Rain since
9am
mm
Dir  Spd
km/h
Gust
km/h
Spd
kts
Gust
kts
17/11:30pm 10.7 5.6 4.2 64 2.9 NNE 20 37 11 20 1014.6 1014.8 0.0
17/11:00pm 10.8 5.4 4.3 64 2.9 N 22 37 12 20 1015.0 1015.2 0.0
17/10:30pm 10.6 6.5 4.5 66 2.8 N 15 24 8 13 1015.3 1015.6 0.0
17/10:00pm 11.3 5.0 3.6 59 3.4 NNW 26 44 14 24 1015.3 1015.6 0.0
17/09:30pm 11.4 4.7 3.7 59 3.5 NNW 28 43 15 23 1015.3 1015.6 0.0
17/09:00pm 11.3 4.0 4.3 62 3.2 NNW 32 43 17 23 1015.3 1015.6 0.0
17/08:30pm 11.1 3.6 4.6 64 3.0 NNW 33 48 18 26 1015.5 1015.8 0.0
17/08:00pm 11.4 4.2 5.1 65 2.9 NNW 32 46 17 25 1015.5 1015.8 0.0
17/07:30pm 11.4 5.0 5.3 66 2.8 NNW 28 39 15 21 1015.6 1015.9 0.0
17/07:00pm 11.7 4.6 5.6 66 2.9 NNW 32 44 17 24 1015.6 1015.9 0.0
17/06:30pm 11.2 5.5 6.9 75 2.1 N 26 33 14 18 1015.7 1016.0 0.0
17/06:00pm 10.8 4.6 7.7 81 1.5 N 30 37 16 20 1015.7 1016.0 0.0
17/05:30pm 10.9 5.4 7.6 80 1.6 N 26 32 14 17 1015.8 1016.1 0.0
17/05:00pm 11.0 6.6 7.5 79 1.7 N 20 32 11 17 1016.0 1016.3 0.0
17/04:30pm 11.0 7.2 7.7 80 1.6 N 17 28 9 15 1016.1 1016.4 0.0
17/04:00pm 11.4 7.1 7.7 78 1.8 N 20 33 11 18 1016.1 1016.4 0.0
17/03:30pm 11.6 6.9 7.9 78 1.8 N 22 32 12 17 1016.4 1016.7 0.0
17/03:00pm 11.6 7.2 7.5 76 2.0 N 20 33 11 18 1016.5 1016.8 0.0
17/02:30pm 12.6 7.3 6.6 67 2.9 NNW 24 44 13 24 1016.5 1016.8 0.0
17/02:00pm 12.7 7.0 6.7 67 2.9 NNW 26 39 14 21 1016.5 1016.8 0.0
17/01:30pm 11.9 7.1 7.2 73 2.3 N 22 33 12 18 1016.5 1016.8 0.0
17/01:00pm 11.3 7.0 7.8 79 1.7 N 20 32 11 17 1016.8 1017.1 0.0
17/12:30pm 11.3 5.5 6.4 72 2.3 N 26 39 14 21 1017.0 1017.3 0.0
17/12:00pm 11.4 7.0 6.5 72 2.3 N 19 30 10 16 1017.4 1017.7 0.0
17/11:30am 12.1 6.9 5.7 65 3.0 N 22 33 12 18 1017.7 1018.0 0.0
17/11:00am 12.0 7.4 5.6 65 3.0 N 19 28 10 15 1018.1 1018.4 0.0
17/10:30am 12.3 8.9 5.9 65 3.0 N 13 24 7 13 1018.7 1019.0 0.0
17/10:00am 12.2 9.8 5.1 62 3.3 NNE 7 9 4 5 1019.0 1019.3 0.0
17/09:30am 11.6 8.1 5.3 65 2.9 NNW 13 22 7 12 1019.1 1019.4 0.0
17/09:00am 10.4 6.3 4.3 66 2.7 NNW 15 20 8 11 1019.1 1019.4 0.0
17/08:30am 10.0 4.9 4.0 66 2.7 N 20 28 11 15 1019.0 1019.3 0.0
17/08:00am 9.5 4.6 3.9 68 2.5 N 19 28 10 15 1018.9 1019.2 0.0
17/07:30am 9.3 4.6 3.3 66 2.6 N 17 22 9 12 1018.6 1018.9 0.0
17/07:00am 9.6 4.8 2.7 62 3.0 N 17 28 9 15 1018.6 1018.9 0.0
17/06:30am 9.0 5.6 2.1 62 2.9 N 9 15 5 8 1018.7 1019.0 0.0
17/06:00am 8.7 4.5 1.8 62 2.9 N 13 20 7 11 1019.0 1019.3 0.0
17/05:30am 8.5 4.9 3.1 69 2.3 N 11 17 6 9 1018.9 1019.2 0.0
17/05:00am 8.8 5.9 2.6 65 2.6 NNW 7 11 4 6 1018.4 1018.7 0.0
17/04:30am 8.1 3.9 1.7 64 2.7 N 13 19 7 10 1018.4 1018.7 0.0
17/04:00am 9.5 5.3 1.7 58 3.3 NW 13 19 7 10 1018.7 1019.0 0.0
17/03:30am 9.2 4.1 0.9 56 3.4 NW 17 22 9 12 1019.2 1019.5 0.0
17/03:00am 8.6 4.4 1.5 61 2.9 WNW 13 22 7 12 1019.4 1019.7 0.0
17/02:30am 8.7 4.1 1.8 62 2.9 NW 15 20 8 11 1019.5 1019.8 0.0
17/02:00am 8.8 4.3 2.4 64 2.7 NW 15 20 8 11 1019.6 1019.9 0.0
17/01:30am 8.8 5.1 2.4 64 2.7 WNW 11 19 6 10 1019.7 1020.0 0.0
17/01:00am 8.8 4.4 2.8 66 2.6 NW 15 22 8 12 1019.7 1020.0 0.0
17/12:30am 9.0 5.6 3.8 70 2.3 WNW 11 20 6 11 1019.9 1020.2 0.0
17/12:00am 9.2 4.1 4.2 71 2.2 NW 20 30 11 16 1019.8 1020.1 0.0
 
Date/Time
EST
Temp
°C
App
Temp
°C
Dew
Point
°C
Rel
Hum
%
Delta-T
°C
Wind Press
QNH
hPa
Press
MSL
hPa
Rain since
9am
mm
Dir  Spd
km/h
Gust
km/h
Spd
kts
Gust
kts
16/11:30pm 9.3 5.1 3.9 69 2.4 NNW 15 26 8 14 1019.9 1020.2 0.0
16/11:00pm 9.1 5.6 3.5 68 2.4 NW 11 19 6 10 1020.3 1020.6 0.0
16/10:30pm 8.9 5.5 4.1 72 2.1 N 11 17 6 9 1020.2 1020.5 0.0
16/10:00pm 8.2 4.8 4.0 75 1.8 N 11 17 6 9 1020.3 1020.6 0.0
16/09:30pm 8.3 3.9 4.7 78 1.6 N 17 24 9 13 1020.3 1020.6 0.0
16/09:00pm 8.4 4.6 4.0 74 1.9 N 13 20 7 11 1020.3 1020.6 0.0
16/08:30pm 8.1 4.7 3.8 74 1.9 N 11 17 6 9 1020.3 1020.6 0.0
16/08:00pm 8.1 5.0 3.6 73 2.0 N 9 15 5 8 1020.4 1020.7 0.0
16/07:30pm 7.8 5.0 2.9 71 2.1 N 7 11 4 6 1020.4 1020.7 0.0
16/07:00pm 7.4 4.4 2.1 69 2.2 NNW 7 11 4 6 1020.1 1020.4 0.0
16/06:30pm 7.9 4.9 1.7 65 2.6 N 7 9 4 5 1020.0 1020.3 0.0
16/06:00pm 7.7 4.7 2.2 68 2.3 NNW 7 9 4 5 1020.0 1020.3 0.0
16/05:30pm 7.5 4.6 2.4 70 2.1 NNW 7 7 4 4 1019.9 1020.2 0.0
16/05:00pm 7.5 4.6 2.6 71 2.1 N 7 9 4 5 1019.9 1020.2 0.0
16/04:30pm 8.3 5.4 2.8 68 2.4 NNE 7 11 4 6 1019.9 1020.2 0.0
16/04:00pm 9.1 6.4 2.7 64 2.7 NNE 6 9 3 5 1019.9 1020.2 0.0
16/03:30pm 9.8 7.0 2.2 59 3.3 NW 6 9 3 5 1019.7 1020.0 0.0

Latest Capital City Observations: Canberra | Sydney | Melbourne | Brisbane | Adelaide | Perth | Hobart | Darwin

Other formats

Comma delimited format used in spreadsheet applications
http://www.bom.gov.au/fwo/IDT60901/IDT60901.95986.axf

JavaScript Object Notation format (JSON) in row-major order
http://www.bom.gov.au/fwo/IDT60901/IDT60901.95986.json

Data quality

Most of these data are generated automatically and are frequently updated. Quality checks on data are not normally performed. It is possible for incorrect values to appear. Refer to information at About Latest Weather Observations and please check the disclaimer before using these data.